Time;durP1;ratioP1;P1;durP2;ratioP2;P2;SDS_P1;SDS_P2;PMS_P1;PMS_P2;Temp;Humidity;BMP_temperature;BMP_pressure;BME280_temperature;BME280_humidity;BME280_pressure;Samples;Min_cycle;Max_cycle;Signal;HPM_P1;HPM_P2
2024/04/11 00:01:18;;;;;;;;;;;;;;;;;;5382852;26;5179;-59
2024/04/11 00:03:44;;;;;;;;;;;;;;;;;;5398343;26;5268;-59
2024/04/11 00:06:09;;;;;;;;;;;;;;;;;;5406846;26;5173;-59
2024/04/11 00:08:34;;;;;;;;;;;;;;;;;;5385176;26;3284;-59
2024/04/11 00:11:00;;;;;;;;;;;;;;;;;;5375793;26;5165;-58
2024/04/11 00:13:25;;;;;;;;;;;;;;;;;;5389931;26;5119;-59
2024/04/11 00:15:53;;;;;;;;;;;;;;;;;;5404347;26;4672;-59
2024/04/11 00:18:19;;;;;;;;;;;;;;;;;;5390243;26;5317;-59
2024/04/11 00:20:44;;;;;;;;;;;;;;;;;;5396805;26;3353;-59
2024/04/11 00:23:10;;;;;;;;;;;;;;;;;;5411651;26;5148;-59
2024/04/11 00:25:35;;;;;;;;;;;;;;;;;;5414606;26;4669;-59
2024/04/11 00:28:00;;;;;;;;;;;;;;;;;;5428393;26;4709;-58
2024/04/11 00:30:26;;;;;;;;;;;;;;;;;;5430589;26;5242;-59
2024/04/11 00:32:51;;;;;;;;;;;;;;;;;;5431114;26;4708;-59
2024/04/11 00:35:20;;;;;;;;;;;;;;;;;;5425955;26;3267;-59
2024/04/11 00:37:48;;;;;;;;;;;;;;;;;;5429267;26;5112;-59
2024/04/11 00:40:14;;;;;;;;;;;;;;;;;;5429438;26;5140;-59
2024/04/11 00:42:39;;;;;;;;;;;;;;;;;;5419888;26;5158;-59
2024/04/11 00:45:07;;;;;;;;;;;;;;;;;;5381989;26;5287;-58
2024/04/11 00:47:33;;;;;;;;;;;;;;;;;;5383860;26;3276;-59
2024/04/11 00:49:58;;;;;;;;;;;;;;;;;;5394249;26;5293;-59
2024/04/11 00:52:24;;;;;;;;;;;;;;;;;;5385296;26;5246;-59
2024/04/11 00:54:49;;;;;;;;;;;;;;;;;;5373159;26;5278;-58
2024/04/11 00:57:15;;;;;;;;;;;;;;;;;;5380441;26;5115;-59
2024/04/11 00:59:40;;;;;;;;;;;;;;;;;;5407247;26;1255;-59
2024/04/11 01:02:06;;;;;;;;;;;;;;;;;;5405587;26;5215;-58
2024/04/11 01:04:35;;;;;;;;;;;;;;;;;;5410813;26;5309;-59
2024/04/11 01:07:08;;;;;;;;;;;;;;;;;;5403054;26;4859;-59
2024/04/11 01:09:34;;;;;;;;;;;;;;;;;;5425209;26;5167;-59
2024/04/11 01:12:00;;;;;;;;;;;;;;;;;;5436452;26;5181;-59
2024/04/11 01:14:25;;;;;;;;;;;;;;;;;;5441127;26;3275;-59
2024/04/11 01:16:51;;;;;;;;;;;;;;;;;;5414615;26;5055;-59
2024/04/11 01:19:16;;;;;;;;;;;;;;;;;;5415675;26;5165;-59
2024/04/11 01:21:42;;;;;;;;;;;;;;;;;;5410605;26;5171;-59
2024/04/11 01:24:07;;;;;;;;;;;;;;;;;;5418156;26;4800;-59
2024/04/11 01:26:35;;;;;;;;;;;;;;;;;;5432914;26;3823;-58
2024/04/11 01:29:01;;;;;;;;;;;;;;;;;;5432321;26;5027;-58
2024/04/11 01:31:26;;;;;;;;;;;;;;;;;;5389096;26;5114;-59
2024/04/11 01:33:51;;;;;;;;;;;;;;;;;;5404508;26;5263;-59
2024/04/11 01:36:17;;;;;;;;;;;;;;;;;;5424587;26;5640;-59
2024/04/11 01:38:45;;;;;;;;;;;;;;;;;;5436834;26;1361;-59
2024/04/11 01:41:10;;;;;;;;;;;;;;;;;;5411067;26;4514;-59
2024/04/11 01:43:36;;;;;;;;;;;;;;;;;;5433436;26;5080;-58
2024/04/11 01:46:02;;;;;;;;;;;;;;;;;;5440906;26;5371;-58
2024/04/11 01:48:28;;;;;;;;;;;;;;;;;;5421308;26;5143;-59
2024/04/11 01:50:53;;;;;;;;;;;;;;;;;;5414068;26;4559;-58
2024/04/11 01:53:18;;;;;;;;;;;;;;;;;;5445658;26;1270;-59
2024/04/11 01:55:44;;;;;;;;;;;;;;;;;;5440778;26;4556;-59
2024/04/11 01:58:11;;;;;;;;;;;;;;;;;;5418718;26;4520;-59
2024/04/11 02:00:37;;;;;;;;;;;;;;;;;;5424453;26;5277;-59
2024/04/11 02:03:04;;;;;;;;;;;;;;;;;;5425663;26;4663;-59
2024/04/11 02:05:34;;;;;;;;;;;;;;;;;;5386782;26;3788;-59
2024/04/11 02:08:01;;;;;;;;;;;;;;;;;;5432995;26;5035;-59
2024/04/11 02:10:26;;;;;;;;;;;;;;;;;;5425357;26;5512;-59
2024/04/11 02:12:52;;;;;;;;;;;;;;;;;;5419808;26;6027;-59
2024/04/11 02:15:17;;;;;;;;;;;;;;;;;;5414782;26;5357;-59
2024/04/11 02:17:42;;;;;;;;;;;;;;;;;;5426151;26;3386;-59
2024/04/11 02:20:13;;;;;;;;;;;;;;;;;;5430169;26;5050;-59
2024/04/11 02:22:38;;;;;;;;;;;;;;;;;;5421586;26;4862;-59
2024/04/11 02:25:03;;;;;;;;;;;;;;;;;;5412903;26;5225;-59
2024/04/11 02:27:29;;;;;;;;;;;;;;;;;;5429450;26;4632;-59
2024/04/11 02:29:55;;;;;;;;;;;;;;;;;;5432815;26;5093;-59
2024/04/11 02:32:20;;;;;;;;;;;;;;;;;;5445353;26;1594;-59
2024/04/11 02:34:46;;;;;;;;;;;;;;;;;;5423559;26;5052;-59
2024/04/11 02:37:11;;;;;;;;;;;;;;;;;;5433631;26;5396;-59
2024/04/11 02:39:36;;;;;;;;;;;;;;;;;;5423965;26;5115;-59
2024/04/11 02:42:03;;;;;;;;;;;;;;;;;;5395985;26;5440;-59
2024/04/11 02:44:28;;;;;;;;;;;;;;;;;;5376856;26;3805;-59
2024/04/11 02:46:54;;;;;;;;;;;;;;;;;;5380068;26;5274;-59
2024/04/11 02:49:19;;;;;;;;;;;;;;;;;;5387041;26;5201;-59
2024/04/11 02:51:44;;;;;;;;;;;;;;;;;;5380608;26;5200;-59
2024/04/11 02:54:10;;;;;;;;;;;;;;;;;;5384467;26;5200;-59
2024/04/11 02:56:37;;;;;;;;;;;;;;;;;;5385082;26;3402;-59
2024/04/11 02:59:04;;;;;;;;;;;;;;;;;;5390845;26;4747;-59
2024/04/11 03:01:31;;;;;;;;;;;;;;;;;;5396414;26;5196;-59
2024/04/11 03:04:01;;;;;;;;;;;;;;;;;;5385425;26;5108;-59
2024/04/11 03:06:26;;;;;;;;;;;;;;;;;;5389883;26;5012;-59
2024/04/11 03:08:53;;;;;;;;;;;;;;;;;;5386501;26;5252;-59
2024/04/11 03:11:19;;;;;;;;;;;;;;;;;;5387424;26;3436;-59
2024/04/11 03:13:44;;;;;;;;;;;;;;;;;;5389886;26;5633;-59
2024/04/11 03:16:14;;;;;;;;;;;;;;;;;;5398608;26;5490;-59
2024/04/11 03:18:39;;;;;;;;;;;;;;;;;;5395164;26;5134;-59
2024/04/11 03:21:05;;;;;;;;;;;;;;;;;;5382170;26;5286;-59
2024/04/11 03:23:30;;;;;;;;;;;;;;;;;;5401787;26;3905;-59
2024/04/11 03:25:56;;;;;;;;;;;;;;;;;;5389962;26;4787;-59
2024/04/11 03:28:22;;;;;;;;;;;;;;;;;;5394591;26;4757;-59
2024/04/11 03:30:54;;;;;;;;;;;;;;;;;;5389030;26;4519;-59
2024/04/11 03:33:20;;;;;;;;;;;;;;;;;;5392443;26;4773;-59
2024/04/11 03:35:54;;;;;;;;;;;;;;;;;;5378971;26;5160;-59
2024/04/11 03:38:20;;;;;;;;;;;;;;;;;;5402958;26;3390;-59
2024/04/11 03:41:20;;;;;;;;;;;;;;;;;;5385465;26;5103;-59
2024/04/11 03:43:43;;;;;;;;;;;;;;;;;;5393375;26;5238;-59
2024/04/11 03:46:11;;;;;;;;;;;;;;;;;;5388924;26;5176;-59
2024/04/11 03:48:38;;;;;;;;;;;;;;;;;;5375848;26;5147;-59
2024/04/11 03:51:22;;;;;;;;;;;;;;;;;;5379034;26;4583;-59
2024/04/11 03:53:49;;;;;;;;;;;;;;;;;;5397323;26;4922;-59
2024/04/11 03:56:15;;;;;;;;;;;;;;;;;;5386658;26;3506;-59
2024/04/11 03:58:40;;;;;;;;;;;;;;;;;;5391554;26;5031;-59
2024/04/11 04:01:07;;;;;;;;;;;;;;;;;;5383129;26;5250;-59
2024/04/11 04:03:36;;;;;;;;;;;;;;;;;;5410610;26;5112;-59
2024/04/11 04:06:02;;;;;;;;;;;;;;;;;;5402846;26;5128;-59
2024/04/11 04:08:28;;;;;;;;;;;;;;;;;;5387917;26;3243;-59
2024/04/11 04:10:53;;;;;;;;;;;;;;;;;;5388118;26;5097;-59
2024/04/11 04:13:20;;;;;;;;;;;;;;;;;;5389292;26;4573;-59
2024/04/11 04:15:45;;;;;;;;;;;;;;;;;;5395351;26;5141;-59
2024/04/11 04:18:12;;;;;;;;;;;;;;;;;;5389774;26;5183;-59
2024/04/11 04:20:38;;;;;;;;;;;;;;;;;;5381248;26;3243;-59
2024/04/11 04:23:10;;;;;;;;;;;;;;;;;;5389120;26;4470;-59
2024/04/11 04:25:38;;;;;;;;;;;;;;;;;;5377413;26;4570;-59
2024/04/11 04:28:05;;;;;;;;;;;;;;;;;;5401789;26;5645;-59
2024/04/11 04:30:30;;;;;;;;;;;;;;;;;;5388765;26;5150;-59
2024/04/11 04:32:55;;;;;;;;;;;;;;;;;;5383767;26;5367;-59
2024/04/11 04:35:21;;;;;;;;;;;;;;;;;;5380551;26;3382;-59
2024/04/11 04:37:46;;;;;;;;;;;;;;;;;;5397087;26;5323;-59
2024/04/11 04:40:11;;;;;;;;;;;;;;;;;;5381974;26;5083;-60
2024/04/11 04:42:37;;;;;;;;;;;;;;;;;;5375140;26;4613;-59
2024/04/11 04:45:04;;;;;;;;;;;;;;;;;;5390374;26;5241;-59
2024/04/11 04:47:34;;;;;;;;;;;;;;;;;;5382790;26;3504;-60
2024/04/11 04:49:59;;;;;;;;;;;;;;;;;;5392284;26;5175;-60
2024/04/11 04:52:25;;;;;;;;;;;;;;;;;;5388693;26;5248;-59
2024/04/11 04:54:54;;;;;;;;;;;;;;;;;;5406458;26;5129;-60
2024/04/11 04:57:21;;;;;;;;;;;;;;;;;;5376345;26;5169;-59
2024/04/11 04:59:46;;;;;;;;;;;;;;;;;;5386075;26;5432;-59
2024/04/11 05:02:12;;;;;;;;;;;;;;;;;;5393635;26;3527;-60
2024/04/11 05:04:37;;;;;;;;;;;;;;;;;;5391999;26;4911;-59
2024/04/11 05:07:03;;;;;;;;;;;;;;;;;;5407818;26;5051;-59
2024/04/11 05:09:29;;;;;;;;;;;;;;;;;;5428783;26;4567;-58
2024/04/11 05:11:54;;;;;;;;;;;;;;;;;;5427237;26;5144;-60
2024/04/11 05:14:20;;;;;;;;;;;;;;;;;;5438188;26;1248;-60
2024/04/11 05:16:45;;;;;;;;;;;;;;;;;;5412403;26;5017;-60
2024/04/11 05:19:15;;;;;;;;;;;;;;;;;;5421247;26;5161;-60
2024/04/11 05:21:41;;;;;;;;;;;;;;;;;;5429819;26;5337;-60
2024/04/11 05:24:11;;;;;;;;;;;;;;;;;;5428797;26;4706;-60
2024/04/11 05:26:36;;;;;;;;;;;;;;;;;;5425122;26;3747;-60
2024/04/11 05:29:04;;;;;;;;;;;;;;;;;;5427146;26;5193;-60
2024/04/11 05:31:30;;;;;;;;;;;;;;;;;;5429624;26;5053;-60
2024/04/11 05:34:00;;;;;;;;;;;;;;;;;;5418127;26;5222;-60
2024/04/11 05:36:25;;;;;;;;;;;;;;;;;;5420374;26;4656;-60
2024/04/11 05:38:51;;;;;;;;;;;;;;;;;;5412979;26;5205;-59
2024/04/11 05:41:16;;;;;;;;;;;;;;;;;;5431895;26;3397;-59
2024/04/11 05:43:47;;;;;;;;;;;;;;;;;;5423926;26;5221;-59
2024/04/11 05:46:19;;;;;;;;;;;;;;;;;;5434467;26;5134;-59
2024/04/11 05:48:48;;;;;;;;;;;;;;;;;;5434266;26;5161;-59
2024/04/11 05:51:14;;;;;;;;;;;;;;;;;;5417875;26;5135;-59
2024/04/11 05:53:40;;;;;;;;;;;;;;;;;;5436896;26;3582;-59
2024/04/11 05:56:06;;;;;;;;;;;;;;;;;;5423714;26;4989;-59
2024/04/11 05:58:31;;;;;;;;;;;;;;;;;;5430232;26;5072;-59
2024/04/11 06:01:00;;;;;;;;;;;;;;;;;;5425337;26;5275;-59
2024/04/11 06:03:28;;;;;;;;;;;;;;;;;;5438614;26;5176;-59
2024/04/11 06:05:53;;;;;;;;;;;;;;;;;;5424033;26;4602;-59
2024/04/11 06:08:19;;;;;;;;;;;;;;;;;;5431714;26;3762;-60
2024/04/11 06:10:45;;;;;;;;;;;;;;;;;;5424661;26;5215;-60
2024/04/11 06:13:11;;;;;;;;;;;;;;;;;;5420008;26;5310;-59
2024/04/11 06:15:37;;;;;;;;;;;;;;;;;;5428346;26;5433;-59
2024/04/11 06:18:09;;;;;;;;;;;;;;;;;;5413255;26;5139;-60
2024/04/11 06:20:35;;;;;;;;;;;;;;;;;;5422387;26;3628;-59
2024/04/11 06:23:08;;;;;;;;;;;;;;;;;;5431509;26;5159;-59
2024/04/11 06:25:35;;;;;;;;;;;;;;;;;;5433930;26;5251;-59
2024/04/11 06:28:00;;;;;;;;;;;;;;;;;;5436498;26;5340;-59
2024/04/11 06:30:26;;;;;;;;;;;;;;;;;;5441150;26;5098;-59
2024/04/11 06:32:54;;;;;;;;;;;;;;;;;;5446333;26;4682;-59
2024/04/11 06:35:19;;;;;;;;;;;;;;;;;;5426593;26;3360;-59
2024/04/11 06:37:44;;;;;;;;;;;;;;;;;;5427263;26;5013;-59
2024/04/11 06:40:13;;;;;;;;;;;;;;;;;;5433324;26;5002;-59
2024/04/11 06:42:48;;;;;;;;;;;;;;;;;;5434838;26;4947;-59
2024/04/11 06:45:16;;;;;;;;;;;;;;;;;;5421930;26;4625;-59
2024/04/11 06:47:45;;;;;;;;;;;;;;;;;;5426655;26;1270;-59
2024/04/11 06:50:10;;;;;;;;;;;;;;;;;;5385025;26;5174;-59
2024/04/11 06:52:36;;;;;;;;;;;;;;;;;;5381529;26;5033;-59
2024/04/11 06:55:02;;;;;;;;;;;;;;;;;;5391651;26;5357;-59
2024/04/11 06:57:27;;;;;;;;;;;;;;;;;;5387503;26;4624;-60
2024/04/11 06:59:57;;;;;;;;;;;;;;;;;;5382716;26;4687;-60
2024/04/11 07:02:24;;;;;;;;;;;;;;;;;;5377937;26;3444;-60
2024/04/11 07:04:50;;;;;;;;;;;;;;;;;;5387709;26;5023;-59
2024/04/11 07:07:15;;;;;;;;;;;;;;;;;;5387174;26;5160;-59
2024/04/11 07:09:42;;;;;;;;;;;;;;;;;;5377085;26;4776;-59
2024/04/11 07:12:10;;;;;;;;;;;;;;;;;;5389655;26;4753;-59
2024/04/11 07:14:40;;;;;;;;;;;;;;;;;;5389973;26;1316;-59
2024/04/11 07:17:11;;;;;;;;;;;;;;;;;;5389199;26;5009;-59
2024/04/11 07:19:39;;;;;;;;;;;;;;;;;;5379379;26;5067;-59
2024/04/11 07:22:09;;;;;;;;;;;;;;;;;;5377782;26;4734;-59
2024/04/11 07:24:37;;;;;;;;;;;;;;;;;;5401907;26;5180;-60
2024/04/11 07:27:04;;;;;;;;;;;;;;;;;;5410291;26;5199;-59
2024/04/11 07:29:29;;;;;;;;;;;;;;;;;;5430716;26;3391;-59
2024/04/11 07:31:55;;;;;;;;;;;;;;;;;;5434913;26;4593;-59
2024/04/11 07:34:22;;;;;;;;;;;;;;;;;;5410155;26;5080;-59
2024/04/11 07:36:51;;;;;;;;;;;;;;;;;;5387083;26;5292;-59
2024/04/11 07:39:17;;;;;;;;;;;;;;;;;;5386307;26;5228;-60
2024/04/11 07:41:45;;;;;;;;;;;;;;;;;;5377898;26;1837;-59
2024/04/11 07:44:11;;;;;;;;;;;;;;;;;;5375356;26;5072;-59
2024/04/11 07:46:37;;;;;;;;;;;;;;;;;;5389857;26;5095;-59
2024/04/11 07:49:07;;;;;;;;;;;;;;;;;;5380621;26;4712;-59
2024/04/11 07:51:33;;;;;;;;;;;;;;;;;;5382920;26;4704;-59
2024/04/11 07:53:58;;;;;;;;;;;;;;;;;;5388372;26;5132;-59
2024/04/11 07:56:25;;;;;;;;;;;;;;;;;;5376072;26;1381;-59
2024/04/11 07:58:55;;;;;;;;;;;;;;;;;;5380003;26;5104;-59
2024/04/11 08:01:22;;;;;;;;;;;;;;;;;;5388262;26;5051;-59
2024/04/11 08:03:55;;;;;;;;;;;;;;;;;;5381349;26;5238;-58
2024/04/11 08:06:20;;;;;;;;;;;;;;;;;;5394321;26;5118;-59
2024/04/11 08:08:48;;;;;;;;;;;;;;;;;;5394002;26;4674;-59
2024/04/11 08:11:15;;;;;;;;;;;;;;;;;;5408246;26;3510;-59
2024/04/11 08:13:43;;;;;;;;;;;;;;;;;;5375405;26;4528;-59
2024/04/11 08:16:09;;;;;;;;;;;;;;;;;;5399650;26;5198;-59
2024/04/11 08:18:34;;;;;;;;;;;;;;;;;;5374079;26;5190;-59
2024/04/11 08:21:00;;;;;;;;;;;;;;;;;;5376595;26;5331;-59
2024/04/11 08:23:25;;;;;;;;;;;;;;;;;;5381247;26;3543;-59
2024/04/11 08:25:55;;;;;;;;;;;;;;;;;;5423599;26;4566;-59
2024/04/11 08:28:21;;;;;;;;;;;;;;;;;;5411756;26;5227;-59
2024/04/11 08:30:47;;;;;;;;;;;;;;;;;;5412640;26;4635;-59
2024/04/11 08:33:14;;;;;;;;;;;;;;;;;;5375330;26;5314;-59
2024/04/11 08:35:42;;;;;;;;;;;;;;;;;;5379338;26;3636;-59
2024/04/11 08:38:11;;;;;;;;;;;;;;;;;;5388727;26;5503;-59
2024/04/11 08:40:39;;;;;;;;;;;;;;;;;;5410198;26;4650;-59
2024/04/11 08:43:05;;;;;;;;;;;;;;;;;;5350978;26;5234;-59
2024/04/11 08:45:31;;;;;;;;;;;;;;;;;;5374873;26;5104;-59
2024/04/11 08:47:56;;;;;;;;;;;;;;;;;;5373196;26;5288;-59
2024/04/11 08:50:21;;;;;;;;;;;;;;;;;;5400132;26;3418;-59
2024/04/11 08:52:47;;;;;;;;;;;;;;;;;;5412307;26;5123;-59
2024/04/11 08:55:12;;;;;;;;;;;;;;;;;;5424367;26;4715;-59
2024/04/11 08:57:38;;;;;;;;;;;;;;;;;;5429510;26;5242;-59
2024/04/11 09:00:09;;;;;;;;;;;;;;;;;;5412820;26;5356;-59
2024/04/11 09:02:37;;;;;;;;;;;;;;;;;;5405910;26;1838;-59
2024/04/11 09:05:05;;;;;;;;;;;;;;;;;;5408210;26;4486;-59
2024/04/11 09:07:32;;;;;;;;;;;;;;;;;;5402807;26;5243;-59
2024/04/11 09:10:04;;;;;;;;;;;;;;;;;;5417963;26;5126;-59
2024/04/11 09:12:29;;;;;;;;;;;;;;;;;;5405205;26;4729;-59
2024/04/11 09:14:55;;;;;;;;;;;;;;;;;;5396060;26;5109;-59
2024/04/11 09:17:21;;;;;;;;;;;;;;;;;;5424944;26;1278;-59
2024/04/11 09:19:47;;;;;;;;;;;;;;;;;;5403638;26;5176;-59
2024/04/11 09:22:13;;;;;;;;;;;;;;;;;;5402686;26;5245;-59
2024/04/11 09:24:44;;;;;;;;;;;;;;;;;;5395080;26;5268;-59
2024/04/11 09:27:11;;;;;;;;;;;;;;;;;;5412733;26;4604;-59
2024/04/11 09:29:37;;;;;;;;;;;;;;;;;;5422719;26;3466;-59
2024/04/11 09:32:06;;;;;;;;;;;;;;;;;;5417672;26;5115;-59
2024/04/11 09:34:31;;;;;;;;;;;;;;;;;;5384396;26;5038;-59
2024/04/11 09:37:03;;;;;;;;;;;;;;;;;;5370471;26;5354;-59
2024/04/11 09:39:49;;;;;;;;;;;;;;;;;;5374933;26;5137;-59
2024/04/11 09:42:23;;;;;;;;;;;;;;;;;;5380508;26;4705;-60
2024/04/11 09:44:48;;;;;;;;;;;;;;;;;;5432187;26;5302;-59
2024/04/11 09:47:14;;;;;;;;;;;;;;;;;;5413712;26;1605;-59
2024/04/11 09:49:43;;;;;;;;;;;;;;;;;;5438053;26;5016;-59
2024/04/11 09:52:10;;;;;;;;;;;;;;;;;;5398674;26;5125;-59
2024/04/11 09:54:38;;;;;;;;;;;;;;;;;;5371967;26;5137;-59
2024/04/11 09:57:05;;;;;;;;;;;;;;;;;;5373772;26;4618;-59
2024/04/11 09:59:30;;;;;;;;;;;;;;;;;;5404408;26;3470;-60
2024/04/11 10:01:57;;;;;;;;;;;;;;;;;;5387722;26;5051;-59
2024/04/11 10:04:35;;;;;;;;;;;;;;;;;;5398367;26;5201;-59
2024/04/11 10:07:04;;;;;;;;;;;;;;;;;;5401078;26;5214;-59
2024/04/11 10:09:29;;;;;;;;;;;;;;;;;;5377741;26;5344;-59
2024/04/11 10:12:00;;;;;;;;;;;;;;;;;;5371559;26;5170;-59
2024/04/11 10:14:28;;;;;;;;;;;;;;;;;;5384745;26;3452;-59
2024/04/11 10:17:01;;;;;;;;;;;;;;;;;;5399094;26;5058;-59
2024/04/11 10:19:27;;;;;;;;;;;;;;;;;;5379041;26;5021;-59
2024/04/11 10:21:54;;;;;;;;;;;;;;;;;;5384741;26;5313;-59
2024/04/11 10:24:31;;;;;;;;;;;;;;;;;;5381772;26;5280;-59
2024/04/11 10:27:09;;;;;;;;;;;;;;;;;;5387458;26;5075;-59
2024/04/11 10:29:35;;;;;;;;;;;;;;;;;;5380758;26;1390;-59
2024/04/11 10:32:01;;;;;;;;;;;;;;;;;;5398416;26;4987;-59
2024/04/11 10:34:37;;;;;;;;;;;;;;;;;;5399184;26;5149;-59
2024/04/11 10:37:03;;;;;;;;;;;;;;;;;;5377521;26;4692;-59
2024/04/11 10:39:35;;;;;;;;;;;;;;;;;;5376725;26;5100;-59
2024/04/11 10:42:07;;;;;;;;;;;;;;;;;;5395490;26;5211;-59
2024/04/11 10:44:34;;;;;;;;;;;;;;;;;;5384962;26;1266;-60
2024/04/11 10:47:07;;;;;;;;;;;;;;;;;;5410811;26;5270;-59
2024/04/11 10:49:33;;;;;;;;;;;;;;;;;;5390939;26;5235;-59
2024/04/11 10:51:58;;;;;;;;;;;;;;;;;;5402832;26;5108;-59
2024/04/11 10:54:26;;;;;;;;;;;;;;;;;;5426525;26;5101;-59
2024/04/11 10:56:54;;;;;;;;;;;;;;;;;;5424531;26;5300;-59
2024/04/11 10:59:22;;;;;;;;;;;;;;;;;;5425128;26;1310;-59
2024/04/11 11:01:51;;;;;;;;;;;;;;;;;;5402153;26;5016;-59
2024/04/11 11:04:16;;;;;;;;;;;;;;;;;;5377532;26;5103;-59
2024/04/11 11:06:47;;;;;;;;;;;;;;;;;;5387937;26;4613;-59
2024/04/11 11:09:16;;;;;;;;;;;;;;;;;;5397259;26;5200;-59
2024/04/11 11:11:41;;;;;;;;;;;;;;;;;;5411633;26;1258;-59
2024/04/11 11:14:10;;;;;;;;;;;;;;;;;;5437108;26;5017;-59
2024/04/11 11:16:37;;;;;;;;;;;;;;;;;;5391189;26;6028;-59
2024/04/11 11:19:04;;;;;;;;;;;;;;;;;;5375377;26;5080;-59
2024/04/11 11:21:32;;;;;;;;;;;;;;;;;;5386930;26;4674;-59
2024/04/11 11:24:01;;;;;;;;;;;;;;;;;;5403587;26;4793;-60
2024/04/11 11:26:35;;;;;;;;;;;;;;;;;;5382971;26;3442;-59
2024/04/11 11:29:04;;;;;;;;;;;;;;;;;;5381128;26;5155;-59
2024/04/11 11:31:31;;;;;;;;;;;;;;;;;;5384671;26;5097;-59
2024/04/11 11:33:59;;;;;;;;;;;;;;;;;;5372110;26;4874;-59
2024/04/11 11:36:25;;;;;;;;;;;;;;;;;;5385899;26;5216;-59
2024/04/11 11:38:54;;;;;;;;;;;;;;;;;;5396905;26;5244;-59
2024/04/11 11:41:20;;;;;;;;;;;;;;;;;;5387681;26;3472;-59
2024/04/11 11:43:45;;;;;;;;;;;;;;;;;;5425083;26;5061;-59
2024/04/11 11:46:17;;;;;;;;;;;;;;;;;;5438614;26;5033;-58
2024/04/11 11:48:46;;;;;;;;;;;;;;;;;;5424747;26;5285;-59
2024/04/11 11:51:12;;;;;;;;;;;;;;;;;;5437923;26;5164;-59
2024/04/11 11:53:45;;;;;;;;;;;;;;;;;;5435226;26;1164;-59
2024/04/11 11:56:12;;;;;;;;;;;;;;;;;;5428801;26;5012;-59
2024/04/11 11:58:43;;;;;;;;;;;;;;;;;;5424493;26;5088;-59
2024/04/11 12:01:35;;;;;;;;;;;;;;;;;;5438150;26;5175;-59
2024/04/11 12:04:00;;;;;;;;;;;;;;;;;;5414166;26;5124;-59
2024/04/11 12:06:33;;;;;;;;;;;;;;;;;;5379260;26;4548;-59
2024/04/11 12:09:00;;;;;;;;;;;;;;;;;;5372359;26;5149;-59
2024/04/11 12:11:29;;;;;;;;;;;;;;;;;;5378430;26;3766;-59
2024/04/11 12:14:02;;;;;;;;;;;;;;;;;;5385675;26;5115;-59
2024/04/11 12:16:38;;;;;;;;;;;;;;;;;;5386178;26;4650;-59
2024/04/11 12:19:04;;;;;;;;;;;;;;;;;;5396909;26;5065;-59
2024/04/11 12:21:34;;;;;;;;;;;;;;;;;;5401536;26;5311;-59
2024/04/11 12:23:59;;;;;;;;;;;;;;;;;;5378743;26;5179;-59
2024/04/11 12:26:29;;;;;;;;;;;;;;;;;;5375744;26;1395;-59
2024/04/11 12:28:56;;;;;;;;;;;;;;;;;;5375655;26;4506;-59
2024/04/11 12:31:21;;;;;;;;;;;;;;;;;;5377558;26;5533;-59
2024/04/11 12:33:47;;;;;;;;;;;;;;;;;;5387049;26;5192;-59
2024/04/11 12:39:21;;;;;;;;;;;;;;;;;;5395768;26;5240;-59
2024/04/11 12:41:47;;;;;;;;;;;;;;;;;;5477529;26;5257;-59
2024/04/11 12:44:12;;;;;;;;;;;;;;;;;;5458946;26;1749;-58
2024/04/11 12:46:49;;;;;;;;;;;;;;;;;;5414165;26;4639;-59
2024/04/11 12:49:15;;;;;;;;;;;;;;;;;;5408374;26;5078;-59
2024/04/11 12:51:45;;;;;;;;;;;;;;;;;;5441264;26;5702;-59
2024/04/11 12:54:15;;;;;;;;;;;;;;;;;;5446318;26;4728;-59
2024/04/11 12:56:44;;;;;;;;;;;;;;;;;;5422872;26;3306;-59
2024/04/11 12:59:23;;;;;;;;;;;;;;;;;;5428169;26;5191;-59
2024/04/11 13:01:48;;;;;;;;;;;;;;;;;;5431951;26;6134;-59
2024/04/11 13:04:23;;;;;;;;;;;;;;;;;;5441606;26;5104;-59
2024/04/11 13:06:48;;;;;;;;;;;;;;;;;;5425299;26;5342;-59
2024/04/11 13:09:31;;;;;;;;;;;;;;;;;;5446242;26;4521;-59
2024/04/11 13:11:59;;;;;;;;;;;;;;;;;;5439736;26;5084;-59
2024/04/11 13:14:27;;;;;;;;;;;;;;;;;;5430960;26;1429;-59
2024/04/11 13:17:02;;;;;;;;;;;;;;;;;;5437045;26;5763;-60
2024/04/11 13:19:27;;;;;;;;;;;;;;;;;;5426133;26;4512;-59
2024/04/11 13:22:02;;;;;;;;;;;;;;;;;;5429775;26;5348;-60
2024/04/11 13:24:33;;;;;;;;;;;;;;;;;;5412609;26;4995;-59
2024/04/11 13:26:58;;;;;;;;;;;;;;;;;;5392420;26;4765;-59
2024/04/11 13:29:27;;;;;;;;;;;;;;;;;;5378767;26;3677;-59
2024/04/11 13:31:55;;;;;;;;;;;;;;;;;;5396562;26;5245;-59
2024/04/11 13:34:38;;;;;;;;;;;;;;;;;;5389279;26;5198;-60
2024/04/11 13:37:04;;;;;;;;;;;;;;;;;;5380695;26;5282;-59
2024/04/11 13:39:30;;;;;;;;;;;;;;;;;;5387097;26;5289;-60
2024/04/11 13:41:58;;;;;;;;;;;;;;;;;;5411878;26;5322;-60
2024/04/11 13:44:23;;;;;;;;;;;;;;;;;;5420664;26;1270;-60
2024/04/11 13:46:50;;;;;;;;;;;;;;;;;;5400441;26;5197;-60
2024/04/11 13:49:30;;;;;;;;;;;;;;;;;;5392923;26;5283;-60
2024/04/11 13:51:55;;;;;;;;;;;;;;;;;;5397546;26;5196;-60
2024/04/11 13:54:22;;;;;;;;;;;;;;;;;;5422362;26;5375;-59
2024/04/11 13:56:59;;;;;;;;;;;;;;;;;;5424746;26;5391;-59
2024/04/11 13:59:25;;;;;;;;;;;;;;;;;;5419299;26;1377;-59
2024/04/11 14:01:50;;;;;;;;;;;;;;;;;;5400488;26;4569;-59
2024/04/11 14:04:15;;;;;;;;;;;;;;;;;;5394763;26;5145;-59
2024/04/11 14:09:18;;;;;;;;;;;;;;;;;;5421674;26;4685;-60
2024/04/11 14:11:51;;;;;;;;;;;;;;;;;;5413609;26;3819;-60
2024/04/11 14:14:20;;;;;;;;;;;;;;;;;;5436255;26;5118;-60
2024/04/11 14:16:52;;;;;;;;;;;;;;;;;;5434538;26;5023;-60
2024/04/11 14:19:36;;;;;;;;;;;;;;;;;;5418128;26;5124;-60
2024/04/11 14:22:08;;;;;;;;;;;;;;;;;;5413230;26;5991;-60
2024/04/11 14:24:39;;;;;;;;;;;;;;;;;;5424900;26;5152;-60
2024/04/11 14:27:08;;;;;;;;;;;;;;;;;;5421501;26;5269;-60
2024/04/11 14:29:37;;;;;;;;;;;;;;;;;;5422202;26;3739;-60
2024/04/11 14:32:03;;;;;;;;;;;;;;;;;;5435446;26;4994;-59
2024/04/11 14:39:49;;;;;;;;;;;;;;;;;;5415281;26;5354;-60
2024/04/11 14:42:22;;;;;;;;;;;;;;;;;;5415988;26;4553;-59
2024/04/11 14:44:48;;;;;;;;;;;;;;;;;;5430928;26;5152;-59
2024/04/11 14:47:19;;;;;;;;;;;;;;;;;;5443297;26;1698;-60
2024/04/11 14:49:48;;;;;;;;;;;;;;;;;;5418135;26;5140;-58
2024/04/11 14:52:19;;;;;;;;;;;;;;;;;;5424589;26;5197;-60
2024/04/11 14:54:46;;;;;;;;;;;;;;;;;;5422260;26;4726;-58
2024/04/11 14:57:11;;;;;;;;;;;;;;;;;;5416620;26;5030;-59
2024/04/11 14:59:42;;;;;;;;;;;;;;;;;;5416122;26;3342;-64
2024/04/11 15:02:11;;;;;;;;;;;;;;;;;;5429069;26;4963;-64
2024/04/11 15:04:38;;;;;;;;;;;;;;;;;;5428007;26;5017;-66
2024/04/11 15:07:10;;;;;;;;;;;;;;;;;;5436170;26;5038;-72
2024/04/11 15:09:43;;;;;;;;;;;;;;;;;;5417761;26;5228;-69
2024/04/11 15:12:13;;;;;;;;;;;;;;;;;;5416106;26;5046;-68
2024/04/11 15:14:38;;;;;;;;;;;;;;;;;;5432279;26;3854;-69
2024/04/11 15:17:18;;;;;;;;;;;;;;;;;;5423652;26;5153;-58
2024/04/11 15:19:44;;;;;;;;;;;;;;;;;;5423433;26;5084;-61
2024/04/11 15:22:11;;;;;;;;;;;;;;;;;;5428995;26;4694;-60
2024/04/11 15:24:42;;;;;;;;;;;;;;;;;;5425076;26;5148;-63
2024/04/11 15:27:10;;;;;;;;;;;;;;;;;;5428342;26;5106;-68
2024/04/11 15:29:57;;;;;;;;;;;;;;;;;;5427155;26;4027;-66
2024/04/11 15:32:23;;;;;;;;;;;;;;;;;;5438727;26;4455;-70
2024/04/11 15:34:55;;;;;;;;;;;;;;;;;;5420294;26;4555;-71
2024/04/11 15:37:29;;;;;;;;;;;;;;;;;;5427774;26;5203;-63
2024/04/11 15:40:00;;;;;;;;;;;;;;;;;;5426657;26;5185;-56
2024/04/11 15:42:26;;;;;;;;;;;;;;;;;;5404650;26;5233;-58
2024/04/11 15:44:51;;;;;;;;;;;;;;;;;;5426228;26;5062;-57
2024/04/11 15:47:21;;;;;;;;;;;;;;;;;;5385406;26;3971;-57
2024/04/11 15:49:51;;;;;;;;;;;;;;;;;;5379145;26;5222;-59
2024/04/11 15:52:28;;;;;;;;;;;;;;;;;;5378175;26;5145;-60
2024/04/11 15:54:56;;;;;;;;;;;;;;;;;;5419380;26;4625;-58
2024/04/11 15:57:25;;;;;;;;;;;;;;;;;;5412065;26;5114;-61
2024/04/11 15:59:54;;;;;;;;;;;;;;;;;;5395725;26;6075;-60
2024/04/11 16:02:19;;;;;;;;;;;;;;;;;;5388370;26;3565;-60
2024/04/11 16:04:44;;;;;;;;;;;;;;;;;;5384276;26;5155;-60
2024/04/11 16:07:13;;;;;;;;;;;;;;;;;;5390146;26;5303;-60
2024/04/11 16:09:46;;;;;;;;;;;;;;;;;;5404377;26;4729;-61
2024/04/11 16:12:11;;;;;;;;;;;;;;;;;;5419941;26;5267;-58
2024/04/11 16:14:43;;;;;;;;;;;;;;;;;;5434291;26;3380;-58
2024/04/11 16:17:13;;;;;;;;;;;;;;;;;;5423917;26;4608;-57
2024/04/11 16:19:41;;;;;;;;;;;;;;;;;;5427655;26;5170;-58
2024/04/11 16:22:10;;;;;;;;;;;;;;;;;;5418944;26;4576;-59
2024/04/11 16:25:06;;;;;;;;;;;;;;;;;;5419081;26;5157;-58
2024/04/11 16:27:34;;;;;;;;;;;;;;;;;;5416785;26;5191;-59
2024/04/11 16:29:59;;;;;;;;;;;;;;;;;;5427847;26;6079;-58
2024/04/11 16:32:29;;;;;;;;;;;;;;;;;;5433798;26;3392;-59
2024/04/11 16:34:58;;;;;;;;;;;;;;;;;;5390110;26;5199;-57
2024/04/11 16:37:26;;;;;;;;;;;;;;;;;;5381296;26;5190;-58
2024/04/11 16:39:51;;;;;;;;;;;;;;;;;;5396059;26;5179;-57
2024/04/11 16:42:24;;;;;;;;;;;;;;;;;;5384944;26;5211;-56
2024/04/11 16:47:39;;;;;;;;;;;;;;;;;;5396495;26;3615;-58
2024/04/11 16:50:05;;;;;;;;;;;;;;;;;;5432896;26;5125;-59
2024/04/11 16:52:31;;;;;;;;;;;;;;;;;;5402667;26;5177;-60
2024/04/11 16:55:00;;;;;;;;;;;;;;;;;;5389655;26;5113;-59
2024/04/11 16:57:29;;;;;;;;;;;;;;;;;;5388665;26;5198;-60
2024/04/11 16:59:55;;;;;;;;;;;;;;;;;;5383831;26;4578;-58
2024/04/11 17:02:21;;;;;;;;;;;;;;;;;;5400717;26;3458;-59
2024/04/11 17:04:48;;;;;;;;;;;;;;;;;;5409480;26;5247;-60
2024/04/11 17:07:27;;;;;;;;;;;;;;;;;;5435413;26;4657;-60
2024/04/11 17:09:57;;;;;;;;;;;;;;;;;;5422738;26;5339;-61
2024/04/11 17:12:32;;;;;;;;;;;;;;;;;;5413401;26;5154;-61
2024/04/11 17:15:00;;;;;;;;;;;;;;;;;;5422287;26;5118;-62
2024/04/11 17:18:07;;;;;;;;;;;;;;;;;;5419785;26;4053;-62
2024/04/11 17:25:26;;;;;;;;;;;;;;;;;;5427242;26;5431;-69
2024/04/11 17:27:57;;;;;;;;;;;;;;;;;;5427571;26;4534;-61